Time;durP1;ratioP1;P1;durP2;ratioP2;P2;SDS_P1;SDS_P2;PMS_P1;PMS_P2;Temp;Humidity;BMP_temperature;BMP_pressure;BME280_temperature;BME280_humidity;BME280_pressure;Samples;Min_cycle;Max_cycle;Signal;HPM_P1;HPM_P2
2022/08/19 00:01:11;;;;;;;7.22;5.95;;;;;;;;;;5094901;28;20371;-78
2022/08/19 00:03:37;;;;;;;8.77;5.90;;;;;;;;;;5095519;28;20535;-78
2022/08/19 00:06:03;;;;;;;6.93;6.15;;;;;;;;;;5095982;28;20025;-78
2022/08/19 00:08:31;;;;;;;20.52;6.32;;;;;;;;;;5095799;28;20028;-78
2022/08/19 00:10:57;;;;;;;9.45;5.88;;;;;;;;;;5095737;28;20611;-78
2022/08/19 00:13:23;;;;;;;7.00;5.65;;;;;;;;;;5095728;28;20024;-78
2022/08/19 00:15:49;;;;;;;6.50;5.50;;;;;;;;;;5095409;28;20036;-78
2022/08/19 00:18:15;;;;;;;7.53;6.03;;;;;;;;;;5095666;28;20032;-79
2022/08/19 00:20:41;;;;;;;7.45;6.13;;;;;;;;;;5095628;28;20487;-78
2022/08/19 00:23:07;;;;;;;13.88;6.78;;;;;;;;;;5094258;28;20111;-78
2022/08/19 00:25:34;;;;;;;6.88;6.10;;;;;;;;;;5095607;28;20023;-78
2022/08/19 00:28:00;;;;;;;7.95;5.78;;;;;;;;;;5095429;28;20020;-78
2022/08/19 00:30:29;;;;;;;8.57;5.78;;;;;;;;;;5095299;28;20103;-78
2022/08/19 00:32:56;;;;;;;7.85;6.15;;;;;;;;;;5095188;28;20024;-79
2022/08/19 00:35:22;;;;;;;9.38;6.55;;;;;;;;;;5095194;28;20030;-79
2022/08/19 00:37:48;;;;;;;8.95;5.95;;;;;;;;;;5095232;28;20020;-78
2022/08/19 00:40:15;;;;;;;7.70;5.25;;;;;;;;;;5095084;28;20101;-79
2022/08/19 00:42:41;;;;;;;8.48;6.13;;;;;;;;;;5095074;28;20020;-79
2022/08/19 00:45:16;;;;;;;6.57;5.95;;;;;;;;;;5094981;28;20150;-79
2022/08/19 00:47:42;;;;;;;7.18;5.80;;;;;;;;;;5094763;28;20040;-79
2022/08/19 00:50:09;;;;;;;6.78;5.97;;;;;;;;;;5094910;28;20185;-78
2022/08/19 00:52:37;;;;;;;7.72;5.95;;;;;;;;;;5094807;28;20020;-79
2022/08/19 00:55:04;;;;;;;6.32;5.65;;;;;;;;;;5094578;28;20086;-80
2022/08/19 00:57:33;;;;;;;5.95;5.45;;;;;;;;;;5094807;28;20020;-79
2022/08/19 00:59:59;;;;;;;9.23;7.68;;;;;;;;;;5094650;28;20052;-80
2022/08/19 01:02:27;;;;;;;31.63;28.23;;;;;;;;;;5094727;28;20027;-79
2022/08/19 01:04:53;;;;;;;9.82;6.90;;;;;;;;;;5094638;28;20047;-79
2022/08/19 01:07:19;;;;;;;10.60;6.55;;;;;;;;;;5094279;28;20442;-79
2022/08/19 01:09:45;;;;;;;9.00;6.22;;;;;;;;;;5094552;28;20429;-80
2022/08/19 01:12:11;;;;;;;15.57;13.55;;;;;;;;;;5094355;28;20027;-79
2022/08/19 01:14:39;;;;;;;14.93;11.88;;;;;;;;;;5094160;28;20020;-79
2022/08/19 01:17:06;;;;;;;7.57;6.13;;;;;;;;;;5094396;28;20017;-79
2022/08/19 01:19:36;;;;;;;8.50;6.50;;;;;;;;;;5094451;28;20024;-79
2022/08/19 01:22:06;;;;;;;7.30;5.80;;;;;;;;;;5094195;28;20353;-79
2022/08/19 01:24:32;;;;;;;8.07;6.07;;;;;;;;;;5094359;28;20055;-79
2022/08/19 01:26:59;;;;;;;6.70;6.00;;;;;;;;;;5094265;28;20024;-78
2022/08/19 01:29:25;;;;;;;6.38;5.18;;;;;;;;;;5094384;28;20012;-78
2022/08/19 01:31:51;;;;;;;8.27;5.72;;;;;;;;;;5094166;28;20028;-78
2022/08/19 01:34:18;;;;;;;7.80;5.85;;;;;;;;;;5093948;28;20498;-78
2022/08/19 01:36:47;;;;;;;6.45;5.82;;;;;;;;;;5094347;28;20111;-78
2022/08/19 01:39:16;;;;;;;6.93;6.20;;;;;;;;;;5110357;28;20403;-79
2022/08/19 01:41:42;;;;;;;7.30;6.20;;;;;;;;;;5114375;28;20028;-78
2022/08/19 01:44:09;;;;;;;6.65;5.75;;;;;;;;;;5114259;28;20016;-78
2022/08/19 01:46:35;;;;;;;7.10;6.38;;;;;;;;;;5114261;28;20020;-78
2022/08/19 01:49:02;;;;;;;9.10;6.43;;;;;;;;;;5113827;28;20061;-78
2022/08/19 01:51:28;;;;;;;6.65;5.68;;;;;;;;;;5113824;28;20032;-78
2022/08/19 01:53:54;;;;;;;9.07;6.38;;;;;;;;;;5114137;28;20032;-78
2022/08/19 01:56:21;;;;;;;6.20;5.70;;;;;;;;;;5114183;28;20493;-78
2022/08/19 01:59:05;;;;;;;5.72;5.22;;;;;;;;;;5114122;28;20471;-78
2022/08/19 02:01:32;;;;;;;6.13;5.55;;;;;;;;;;5114074;28;20023;-78
2022/08/19 02:04:01;;;;;;;5.85;5.25;;;;;;;;;;5114199;28;20525;-79
2022/08/19 02:06:27;;;;;;;5.85;5.35;;;;;;;;;;5114098;28;20038;-78
2022/08/19 02:08:53;;;;;;;5.85;5.25;;;;;;;;;;5114074;28;20477;-78
2022/08/19 02:11:28;;;;;;;5.90;5.32;;;;;;;;;;5113845;28;20064;-79
2022/08/19 02:13:54;;;;;;;4.95;4.45;;;;;;;;;;5113802;28;20379;-78
2022/08/19 02:16:21;;;;;;;5.25;4.75;;;;;;;;;;5113877;28;20069;-78
2022/08/19 02:21:33;;;;;;;5.32;4.82;;;;;;;;;;5113847;28;20390;-78
2022/08/19 02:23:59;;;;;;;7.50;5.28;;;;;;;;;;5113900;28;20020;-79
2022/08/19 02:26:26;;;;;;;6.80;5.43;;;;;;;;;;5117321;28;20072;-78
2022/08/19 02:28:53;;;;;;;5.95;5.45;;;;;;;;;;5116848;28;20020;-79
2022/08/19 02:31:20;;;;;;;5.63;5.03;;;;;;;;;;5118064;28;20030;-78
2022/08/19 02:33:47;;;;;;;7.28;5.25;;;;;;;;;;5117946;28;20034;-78
2022/08/19 02:36:13;;;;;;;6.80;5.85;;;;;;;;;;5117701;28;20081;-78
2022/08/19 02:38:40;;;;;;;5.53;5.00;;;;;;;;;;5117962;28;20020;-78
2022/08/19 02:41:09;;;;;;;5.88;5.20;;;;;;;;;;5117677;28;20016;-78
2022/08/19 02:43:36;;;;;;;5.85;5.13;;;;;;;;;;5117889;28;20348;-78
2022/08/19 02:46:11;;;;;;;6.10;5.60;;;;;;;;;;5117820;28;20463;-79
2022/08/19 02:48:37;;;;;;;5.90;5.30;;;;;;;;;;5117536;28;20517;-78
2022/08/19 02:51:05;;;;;;;5.30;4.82;;;;;;;;;;5117811;28;20028;-78
2022/08/19 02:53:31;;;;;;;7.35;6.65;;;;;;;;;;5117312;28;20031;-78
2022/08/19 02:55:57;;;;;;;8.65;6.30;;;;;;;;;;5117545;28;20136;-78
2022/08/19 02:58:23;;;;;;;5.95;5.45;;;;;;;;;;5117424;28;20414;-78
2022/08/19 03:00:51;;;;;;;7.85;5.68;;;;;;;;;;5117422;28;20471;-79
2022/08/19 03:03:18;;;;;;;7.50;5.72;;;;;;;;;;5117447;28;20395;-78
2022/08/19 03:05:45;;;;;;;6.90;5.70;;;;;;;;;;5117452;28;20118;-78
2022/08/19 03:08:12;;;;;;;5.78;5.28;;;;;;;;;;5117265;28;20023;-78
2022/08/19 03:10:46;;;;;;;5.90;5.40;;;;;;;;;;5117151;28;20026;-78
2022/08/19 03:13:16;;;;;;;6.35;5.05;;;;;;;;;;5117084;28;20486;-78
2022/08/19 03:15:46;;;;;;;7.07;5.78;;;;;;;;;;5117098;28;20470;-78
2022/08/19 03:18:12;;;;;;;7.05;5.50;;;;;;;;;;5117138;28;20019;-78
2022/08/19 03:20:57;;;;;;;6.47;5.55;;;;;;;;;;5117105;28;20032;-78
2022/08/19 03:23:23;;;;;;;6.20;5.47;;;;;;;;;;5117013;28;20530;-78
2022/08/19 03:25:50;;;;;;;12.27;6.68;;;;;;;;;;5116979;28;20055;-79
2022/08/19 03:28:17;;;;;;;6.65;5.68;;;;;;;;;;5116914;28;20098;-79
2022/08/19 03:30:44;;;;;;;6.95;5.80;;;;;;;;;;5116903;28;20379;-79
2022/08/19 03:33:14;;;;;;;7.50;5.72;;;;;;;;;;5116681;28;20030;-78
2022/08/19 03:35:40;;;;;;;7.50;6.03;;;;;;;;;;5116558;28;20016;-78
2022/08/19 03:38:07;;;;;;;8.05;5.95;;;;;;;;;;5116718;28;20024;-78
2022/08/19 03:40:34;;;;;;;8.73;6.60;;;;;;;;;;5116708;27;20020;-79
2022/08/19 03:43:00;;;;;;;8.05;5.95;;;;;;;;;;5116694;28;20348;-78
2022/08/19 03:45:27;;;;;;;9.18;6.72;;;;;;;;;;5116657;28;20402;-78
2022/08/19 03:47:53;;;;;;;9.82;6.07;;;;;;;;;;5116311;28;20067;-78
2022/08/19 03:50:20;;;;;;;8.60;6.07;;;;;;;;;;5102600;28;20031;-79
2022/08/19 03:52:50;;;;;;;13.43;7.15;;;;;;;;;;5096005;28;20372;-78
2022/08/19 03:55:16;;;;;;;12.38;7.68;;;;;;;;;;5094726;28;20391;-78
2022/08/19 03:57:42;;;;;;;8.98;6.75;;;;;;;;;;5084178;28;20036;-76
2022/08/19 04:00:09;;;;;;;8.35;6.20;;;;;;;;;;5075449;28;20029;-78
2022/08/19 04:02:35;;;;;;;9.63;7.40;;;;;;;;;;5075698;28;20460;-78
2022/08/19 04:05:02;;;;;;;22.60;14.82;;;;;;;;;;5075752;28;20032;-78
2022/08/19 04:07:28;;;;;;;23.38;14.93;;;;;;;;;;5075603;28;20020;-78
2022/08/19 04:09:54;;;;;;;17.27;13.35;;;;;;;;;;5075476;28;20468;-78
2022/08/19 04:12:20;;;;;;;22.90;14.50;;;;;;;;;;5075375;28;20027;-78
2022/08/19 04:14:46;;;;;;;21.30;14.52;;;;;;;;;;5079082;28;20071;-78
2022/08/19 04:17:13;;;;;;;21.55;13.30;;;;;;;;;;5094165;28;20035;-78
2022/08/19 04:19:40;;;;;;;20.70;13.60;;;;;;;;;;5094873;28;20027;-78
2022/08/19 04:22:07;;;;;;;18.42;12.32;;;;;;;;;;5095352;28;20032;-79
2022/08/19 04:24:36;;;;;;;19.25;12.20;;;;;;;;;;5095494;28;20169;-78
2022/08/19 04:27:02;;;;;;;15.75;12.23;;;;;;;;;;5095525;28;20024;-79
2022/08/19 04:29:29;;;;;;;16.65;11.35;;;;;;;;;;5095261;28;20020;-78
2022/08/19 04:31:56;;;;;;;17.02;11.52;;;;;;;;;;5095117;28;20012;-78
2022/08/19 04:34:23;;;;;;;12.88;10.65;;;;;;;;;;5095212;28;20129;-78
2022/08/19 04:36:53;;;;;;;17.38;11.63;;;;;;;;;;5094220;28;20395;-78
2022/08/19 04:39:20;;;;;;;18.20;12.35;;;;;;;;;;5095210;28;20494;-78
2022/08/19 04:44:33;;;;;;;23.67;13.50;;;;;;;;;;5095246;28;20039;-78
2022/08/19 04:46:59;;;;;;;15.05;12.23;;;;;;;;;;5094470;28;20051;-78
2022/08/19 04:49:25;;;;;;;15.65;11.27;;;;;;;;;;5093185;28;20077;-78
2022/08/19 04:51:53;;;;;;;16.48;10.50;;;;;;;;;;5094779;28;20020;-78
2022/08/19 04:54:22;;;;;;;10.48;9.13;;;;;;;;;;5094692;28;20040;-79
2022/08/19 04:56:49;;;;;;;14.02;9.60;;;;;;;;;;5094902;28;20075;-78
2022/08/19 04:59:16;;;;;;;14.45;9.63;;;;;;;;;;5094830;28;20024;-78
2022/08/19 05:01:43;;;;;;;10.27;8.38;;;;;;;;;;5094800;28;20486;-78
2022/08/19 05:04:10;;;;;;;13.35;9.15;;;;;;;;;;5092263;28;20024;-78
2022/08/19 05:06:37;;;;;;;12.13;8.60;;;;;;;;;;5094582;28;20028;-78
2022/08/19 05:09:04;;;;;;;9.77;8.15;;;;;;;;;;5094590;28;20024;-78
2022/08/19 05:11:32;;;;;;;12.00;8.18;;;;;;;;;;5094520;28;20512;-78
2022/08/19 05:13:58;;;;;;;14.90;8.35;;;;;;;;;;5094174;28;20471;-79
2022/08/19 05:16:25;;;;;;;14.27;10.23;;;;;;;;;;5094235;28;20028;-78
2022/08/19 05:24:23;;;;;;;14.32;9.52;;;;;;;;;;5086466;28;20050;-79
2022/08/19 05:26:51;;;;;;;13.98;10.90;;;;;;;;;;5086821;28;20387;-79
2022/08/19 05:29:19;;;;;;;16.08;9.05;;;;;;;;;;5080239;28;20069;-80
2022/08/19 05:31:45;;;;;;;12.32;8.45;;;;;;;;;;5087257;28;20063;-79
2022/08/19 05:34:13;;;;;;;9.38;8.38;;;;;;;;;;5093726;28;20042;-79
2022/08/19 05:36:40;;;;;;;13.23;9.05;;;;;;;;;;5094828;28;20035;-80
2022/08/19 05:39:08;;;;;;;9.95;8.13;;;;;;;;;;5093108;28;20024;-78
2022/08/19 05:41:35;;;;;;;8.82;7.03;;;;;;;;;;5099092;28;20048;-79
2022/08/19 05:44:02;;;;;;;7.90;6.15;;;;;;;;;;5096255;28;20099;-78
2022/08/19 05:46:29;;;;;;;9.27;7.93;;;;;;;;;;5101131;28;20116;-78
2022/08/19 05:48:56;;;;;;;9.02;8.05;;;;;;;;;;5097789;28;20043;-79
2022/08/19 05:51:23;;;;;;;23.50;13.00;;;;;;;;;;5101541;28;20406;-79
2022/08/19 05:53:49;;;;;;;67.60;29.25;;;;;;;;;;5096697;28;20040;-78
2022/08/19 05:56:16;;;;;;;129.88;54.05;;;;;;;;;;5091814;28;20086;-79
2022/08/19 05:58:44;;;;;;;82.47;37.03;;;;;;;;;;5091940;28;20082;-80
2022/08/19 06:01:11;;;;;;;23.50;12.27;;;;;;;;;;5099897;28;20024;-79
2022/08/19 06:03:39;;;;;;;38.85;19.02;;;;;;;;;;5096099;28;20024;-79
2022/08/19 06:06:05;;;;;;;29.45;15.07;;;;;;;;;;5092888;28;20020;-78
2022/08/19 06:08:33;;;;;;;17.75;11.05;;;;;;;;;;5097550;28;20092;-79
2022/08/19 06:11:11;;;;;;;27.27;19.20;;;;;;;;;;5094457;28;20031;-78
2022/08/19 06:13:38;;;;;;;25.67;16.55;;;;;;;;;;5090875;28;20126;-78
2022/08/19 06:16:07;;;;;;;82.25;48.65;;;;;;;;;;5090261;28;20031;-78
2022/08/19 06:18:33;;;;;;;25.67;18.67;;;;;;;;;;5080265;28;20032;-78
2022/08/19 06:21:03;;;;;;;17.20;12.43;;;;;;;;;;5089958;28;20064;-80
2022/08/19 06:23:29;;;;;;;13.60;10.57;;;;;;;;;;5095749;28;20039;-79
2022/08/19 06:25:55;;;;;;;9.50;7.93;;;;;;;;;;5093965;28;20106;-80
2022/08/19 06:28:24;;;;;;;10.60;8.20;;;;;;;;;;5082014;28;20265;-80
2022/08/19 06:30:51;;;;;;;10.05;8.65;;;;;;;;;;5088429;28;20103;-79
2022/08/19 06:33:17;;;;;;;18.45;14.90;;;;;;;;;;5079898;28;20077;-79
2022/08/19 06:35:43;;;;;;;14.45;12.13;;;;;;;;;;5085083;28;20057;-79
2022/08/19 06:38:10;;;;;;;13.05;11.73;;;;;;;;;;5102797;28;20065;-79
2022/08/19 06:40:37;;;;;;;18.77;13.32;;;;;;;;;;5092674;28;20534;-78
2022/08/19 06:43:04;;;;;;;15.70;13.65;;;;;;;;;;5094887;28;20369;-77
2022/08/19 06:45:30;;;;;;;13.45;11.80;;;;;;;;;;5090865;28;20017;-78
2022/08/19 06:47:56;;;;;;;15.50;13.98;;;;;;;;;;5089010;28;20093;-78
2022/08/19 06:50:23;;;;;;;15.02;12.88;;;;;;;;;;5084728;28;20361;-78
2022/08/19 06:52:49;;;;;;;15.63;13.90;;;;;;;;;;5078824;28;20035;-78
2022/08/19 06:55:17;;;;;;;12.43;10.65;;;;;;;;;;5089679;28;20039;-78
2022/08/19 06:57:45;;;;;;;11.52;10.32;;;;;;;;;;5082378;28;20077;-78
2022/08/19 07:00:13;;;;;;;9.68;8.55;;;;;;;;;;5088374;28;20028;-79
2022/08/19 07:02:39;;;;;;;11.63;10.10;;;;;;;;;;5072293;28;20463;-79
2022/08/19 07:05:05;;;;;;;15.30;13.75;;;;;;;;;;5075883;28;20029;-78
2022/08/19 07:07:31;;;;;;;11.13;9.85;;;;;;;;;;5082266;28;20026;-79
2022/08/19 07:09:57;;;;;;;11.63;9.63;;;;;;;;;;5080878;28;20024;-78
2022/08/19 07:12:23;;;;;;;12.98;9.60;;;;;;;;;;5081494;28;20103;-78
2022/08/19 07:14:50;;;;;;;16.17;11.93;;;;;;;;;;5102036;28;20039;-79
2022/08/19 07:17:16;;;;;;;15.95;12.60;;;;;;;;;;5082318;28;20032;-79
2022/08/19 07:19:42;;;;;;;37.25;29.50;;;;;;;;;;5100421;28;20046;-76
2022/08/19 07:22:10;;;;;;;122.00;71.03;;;;;;;;;;5101257;28;20076;-78
2022/08/19 07:24:37;;;;;;;57.03;30.08;;;;;;;;;;5102256;28;20560;-79
2022/08/19 07:27:04;;;;;;;92.50;45.13;;;;;;;;;;5104685;28;20463;-78
2022/08/19 07:29:33;;;;;;;60.00;30.27;;;;;;;;;;5104226;28;20433;-79
2022/08/19 07:31:59;;;;;;;47.85;25.02;;;;;;;;;;5098825;28;20027;-79
2022/08/19 07:34:26;;;;;;;35.65;17.17;;;;;;;;;;5098984;28;20430;-78
2022/08/19 07:36:52;;;;;;;21.80;13.00;;;;;;;;;;5087838;28;20040;-79
2022/08/19 07:39:20;;;;;;;15.25;9.55;;;;;;;;;;5081813;28;20070;-78
2022/08/19 07:41:47;;;;;;;14.60;9.23;;;;;;;;;;5074593;28;20487;-78
2022/08/19 07:44:14;;;;;;;17.02;15.18;;;;;;;;;;5080317;28;20028;-79
2022/08/19 07:46:41;;;;;;;25.42;16.05;;;;;;;;;;5085680;28;20040;-79
2022/08/19 07:49:13;;;;;;;78.40;33.95;;;;;;;;;;5070239;28;20115;-78
2022/08/19 07:51:39;;;;;;;32.65;17.67;;;;;;;;;;5079349;28;20032;-80
2022/08/19 07:54:05;;;;;;;28.98;19.95;;;;;;;;;;5094941;28;20032;-79
2022/08/19 07:56:31;;;;;;;41.65;30.30;;;;;;;;;;5087176;28;20058;-80
2022/08/19 07:58:58;;;;;;;22.65;16.55;;;;;;;;;;5083599;28;20039;-78
2022/08/19 08:01:25;;;;;;;29.23;18.73;;;;;;;;;;5081975;28;20039;-79
2022/08/19 08:09:41;;;;;;;22.02;19.63;;;;;;;;;;5085812;28;20031;-78
2022/08/19 08:12:15;;;;;;;19.63;13.65;;;;;;;;;;5082281;28;20024;-79
2022/08/19 08:14:41;;;;;;;;;;;;;;;;;;5083282;28;20044;-79
2022/08/19 08:17:08;;;;;;;14.05;11.52;;;;;;;;;;5081775;28;19955;-78
2022/08/19 08:19:34;;;;;;;15.88;14.35;;;;;;;;;;5090870;28;20056;-79
2022/08/19 08:22:02;;;;;;;12.68;9.95;;;;;;;;;;5085588;28;20428;-80
2022/08/19 08:24:30;;;;;;;8.25;6.57;;;;;;;;;;5078101;28;20034;-80
2022/08/19 08:26:57;;;;;;;9.45;7.43;;;;;;;;;;5082581;28;20062;-79
2022/08/19 08:29:23;;;;;;;7.00;6.28;;;;;;;;;;5075897;28;20021;-77
2022/08/19 08:31:49;;;;;;;10.55;7.32;;;;;;;;;;5074443;28;20032;-79
2022/08/19 08:34:15;;;;;;;9.32;6.03;;;;;;;;;;5087780;28;20554;-76
2022/08/19 08:36:44;;;;;;;7.35;6.20;;;;;;;;;;5094753;28;20024;-79
2022/08/19 08:39:11;;;;;;;9.98;8.15;;;;;;;;;;5111827;28;20012;-77
2022/08/19 08:41:56;;;;;;;6.20;5.07;;;;;;;;;;5085647;28;20032;-76
2022/08/19 08:44:37;;;;;;;6.80;6.00;;;;;;;;;;5078495;28;20057;-77
2022/08/19 08:47:04;;;;;;;5.63;5.10;;;;;;;;;;5080067;28;20503;-77
2022/08/19 08:49:49;;;;;;;9.05;6.80;;;;;;;;;;5083075;28;20016;-77
2022/08/19 08:52:26;;;;;;;6.70;5.13;;;;;;;;;;5082874;28;20028;-77
2022/08/19 08:54:56;;;;;;;7.35;4.95;;;;;;;;;;5079661;28;20040;-77
2022/08/19 08:57:28;;;;;;;5.53;4.97;;;;;;;;;;5093935;28;20028;-77
2022/08/19 08:59:57;;;;;;;6.90;5.10;;;;;;;;;;5092024;28;20051;-77
2022/08/19 09:02:24;;;;;;;6.15;5.55;;;;;;;;;;5086321;28;20024;-72
2022/08/19 09:04:50;;;;;;;12.60;5.72;;;;;;;;;;5075568;28;20553;-77
2022/08/19 09:07:19;;;;;;;8.68;7.78;;;;;;;;;;5093664;28;20044;-77
2022/08/19 09:09:58;;;;;;;9.02;8.13;;;;;;;;;;5088834;28;20129;-76
2022/08/19 09:12:24;;;;;;;6.93;6.18;;;;;;;;;;5076421;28;20031;-77
2022/08/19 09:15:09;;;;;;;5.38;4.88;;;;;;;;;;5082617;28;20040;-77
2022/08/19 09:17:38;;;;;;;6.53;5.50;;;;;;;;;;5075271;28;20116;-79
2022/08/19 09:20:07;;;;;;;6.15;5.38;;;;;;;;;;5077194;28;20422;-78
2022/08/19 09:22:33;;;;;;;5.72;5.00;;;;;;;;;;5084005;28;20399;-78
2022/08/19 09:24:59;;;;;;;6.15;5.40;;;;;;;;;;5081589;28;20024;-78
2022/08/19 09:27:26;;;;;;;7.97;6.53;;;;;;;;;;5072525;28;20382;-80
2022/08/19 09:29:53;;;;;;;17.90;9.10;;;;;;;;;;5079855;28;20032;-79
2022/08/19 09:32:20;;;;;;;14.88;8.45;;;;;;;;;;5079112;28;20028;-79
2022/08/19 09:34:46;;;;;;;8.15;6.32;;;;;;;;;;5079991;28;20093;-77
2022/08/19 09:37:16;;;;;;;13.52;9.25;;;;;;;;;;5076330;28;20024;-78
2022/08/19 09:39:42;;;;;;;16.13;10.75;;;;;;;;;;5078146;28;20068;-77
2022/08/19 09:42:13;;;;;;;6.40;5.47;;;;;;;;;;5078478;28;20044;-78
2022/08/19 09:44:40;;;;;;;21.60;11.57;;;;;;;;;;5084851;28;20082;-77
2022/08/19 09:47:06;;;;;;;11.85;8.77;;;;;;;;;;5078938;28;20084;-77
2022/08/19 09:49:33;;;;;;;7.40;5.25;;;;;;;;;;5075331;28;20020;-76
2022/08/19 09:51:59;;;;;;;5.50;5.00;;;;;;;;;;5083516;28;20024;-76
2022/08/19 09:54:26;;;;;;;5.45;4.63;;;;;;;;;;5072466;28;20044;-77
2022/08/19 09:56:56;;;;;;;7.65;5.40;;;;;;;;;;5073611;28;20504;-77
2022/08/19 09:59:22;;;;;;;6.35;4.72;;;;;;;;;;5087469;28;20024;-76
2022/08/19 10:01:48;;;;;;;4.82;4.40;;;;;;;;;;5075618;28;20382;-78
2022/08/19 10:04:15;;;;;;;6.60;4.57;;;;;;;;;;5083118;28;20016;-77
2022/08/19 10:06:41;;;;;;;5.82;5.22;;;;;;;;;;5089830;28;20107;-77
2022/08/19 10:09:09;;;;;;;8.40;4.82;;;;;;;;;;5086611;28;20101;-78
2022/08/19 10:11:37;;;;;;;5.78;4.47;;;;;;;;;;5099431;28;20024;-77
2022/08/19 10:14:05;;;;;;;5.10;3.90;;;;;;;;;;5096054;28;20487;-78
2022/08/19 10:16:31;;;;;;;5.22;4.72;;;;;;;;;;5103253;28;20065;-78
2022/08/19 10:18:59;;;;;;;4.97;4.40;;;;;;;;;;5092765;28;20125;-77
2022/08/19 10:21:27;;;;;;;11.98;10.25;;;;;;;;;;5084069;28;20032;-77
2022/08/19 10:23:56;;;;;;;7.53;6.93;;;;;;;;;;5082252;28;20039;-79
2022/08/19 10:26:24;;;;;;;5.50;4.97;;;;;;;;;;5076425;28;20141;-80
2022/08/19 10:28:50;;;;;;;11.20;5.43;;;;;;;;;;5075886;28;20462;-79
2022/08/19 10:31:19;;;;;;;14.93;13.40;;;;;;;;;;5078970;28;20028;-77
2022/08/19 10:33:45;;;;;;;5.75;5.25;;;;;;;;;;5085469;28;20030;-78
2022/08/19 10:36:30;;;;;;;5.88;4.68;;;;;;;;;;5084356;28;20050;-81
2022/08/19 10:38:58;;;;;;;4.10;3.72;;;;;;;;;;5083815;28;20032;-79
2022/08/19 10:41:28;;;;;;;6.25;5.65;;;;;;;;;;5077418;28;20138;-79
2022/08/19 10:43:56;;;;;;;6.50;5.90;;;;;;;;;;5077090;28;20529;-79
2022/08/19 10:46:23;;;;;;;4.65;4.22;;;;;;;;;;5081289;28;20060;-78
2022/08/19 10:48:50;;;;;;;4.90;4.03;;;;;;;;;;5091624;28;20395;-78
2022/08/19 10:54:01;;;;;;;8.85;6.90;;;;;;;;;;5087900;28;20415;-78
2022/08/19 10:59:14;;;;;;;5.65;4.65;;;;;;;;;;5085387;28;20039;-78
2022/08/19 11:01:40;;;;;;;5.30;4.80;;;;;;;;;;5084533;28;20441;-76
2022/08/19 11:04:09;;;;;;;9.13;7.28;;;;;;;;;;5083348;28;20514;-78
2022/08/19 11:06:36;;;;;;;14.73;13.60;;;;;;;;;;5092536;28;20077;-77
2022/08/19 11:09:02;;;;;;;10.57;9.57;;;;;;;;;;5080712;28;20379;-80
2022/08/19 11:11:28;;;;;;;6.40;4.30;;;;;;;;;;5100090;28;20471;-79
2022/08/19 11:13:54;;;;;;;7.45;5.18;;;;;;;;;;5097316;28;20458;-76
2022/08/19 11:16:23;;;;;;;5.10;4.32;;;;;;;;;;5102341;28;20088;-79
2022/08/19 11:18:53;;;;;;;5.07;4.07;;;;;;;;;;5105457;28;20019;-76
2022/08/19 11:21:22;;;;;;;10.48;7.65;;;;;;;;;;5104449;28;20027;-77
2022/08/19 11:23:51;;;;;;;7.15;4.82;;;;;;;;;;5084879;28;20024;-76
2022/08/19 11:26:18;;;;;;;13.18;8.65;;;;;;;;;;5079797;28;20037;-75
2022/08/19 11:28:44;;;;;;;10.10;7.22;;;;;;;;;;5091644;28;20027;-76
2022/08/19 11:31:11;;;;;;;8.27;6.28;;;;;;;;;;5100657;28;20068;-77
2022/08/19 11:33:38;;;;;;;13.63;6.60;;;;;;;;;;5081575;28;20486;-77
2022/08/19 11:36:04;;;;;;;7.70;6.28;;;;;;;;;;5081134;28;20036;-77
2022/08/19 11:38:30;;;;;;;6.57;5.38;;;;;;;;;;5081565;28;20016;-76
2022/08/19 11:40:58;;;;;;;6.07;3.80;;;;;;;;;;5089573;28;20030;-77
2022/08/19 11:43:24;;;;;;;7.20;4.88;;;;;;;;;;5098379;28;20031;-79
2022/08/19 11:45:51;;;;;;;17.02;7.60;;;;;;;;;;5105105;28;20030;-78
2022/08/19 11:48:25;;;;;;;8.73;5.10;;;;;;;;;;5106977;28;20048;-78
2022/08/19 11:50:53;;;;;;;5.55;4.00;;;;;;;;;;5092960;28;20494;-78
2022/08/19 11:53:20;;;;;;;6.18;3.90;;;;;;;;;;5085129;28;20403;-77
2022/08/19 11:55:47;;;;;;;5.97;3.50;;;;;;;;;;5086892;28;20040;-78
2022/08/19 11:58:15;;;;;;;5.88;4.38;;;;;;;;;;5082507;28;20453;-78
2022/08/19 12:00:41;;;;;;;4.50;3.22;;;;;;;;;;5079543;28;20028;-77
2022/08/19 12:03:07;;;;;;;5.30;3.53;;;;;;;;;;5084765;28;20051;-77
2022/08/19 12:05:34;;;;;;;9.05;4.90;;;;;;;;;;5093506;28;20024;-77
2022/08/19 12:08:00;;;;;;;9.10;5.45;;;;;;;;;;5074855;28;20024;-78
2022/08/19 12:10:26;;;;;;;8.00;7.20;;;;;;;;;;5081946;28;20456;-78
2022/08/19 12:12:52;;;;;;;28.02;25.52;;;;;;;;;;5083691;28;20028;-78
2022/08/19 12:15:18;;;;;;;10.75;8.68;;;;;;;;;;5087610;28;20047;-78
2022/08/19 12:17:44;;;;;;;10.23;9.32;;;;;;;;;;5081062;28;20545;-77
2022/08/19 12:20:11;;;;;;;6.28;5.18;;;;;;;;;;5081110;28;20021;-78
2022/08/19 12:22:39;;;;;;;5.68;4.50;;;;;;;;;;5073676;28;20035;-78
2022/08/19 12:25:05;;;;;;;6.80;5.15;;;;;;;;;;5074164;28;20021;-78
2022/08/19 12:27:32;;;;;;;6.10;4.43;;;;;;;;;;5073684;28;20418;-78
2022/08/19 12:30:00;;;;;;;5.80;4.78;;;;;;;;;;5096385;28;20834;-78
2022/08/19 12:32:26;;;;;;;5.28;3.85;;;;;;;;;;5099109;28;20475;-77
2022/08/19 12:34:52;;;;;;;5.85;4.75;;;;;;;;;;5102404;28;20034;-78
2022/08/19 12:37:18;;;;;;;7.43;6.13;;;;;;;;;;5095002;28;20020;-78
2022/08/19 12:39:44;;;;;;;6.90;4.50;;;;;;;;;;5102997;28;20036;-77
2022/08/19 12:42:11;;;;;;;5.18;3.63;;;;;;;;;;5091391;28;20035;-78
2022/08/19 12:44:39;;;;;;;6.25;4.38;;;;;;;;;;5076060;28;20031;-77
2022/08/19 12:47:09;;;;;;;23.85;21.50;;;;;;;;;;5088646;28;20046;-77
2022/08/19 12:49:36;;;;;;;6.82;6.00;;;;;;;;;;5078739;28;20442;-79
2022/08/19 12:52:03;;;;;;;5.65;4.28;;;;;;;;;;5104080;28;20497;-79
2022/08/19 12:54:30;;;;;;;9.77;7.40;;;;;;;;;;5092815;28;20375;-78
2022/08/19 12:56:57;;;;;;;68.93;62.83;;;;;;;;;;5088539;28;20035;-78
2022/08/19 12:59:23;;;;;;;8.35;7.22;;;;;;;;;;5080653;28;20100;-77
2022/08/19 13:01:49;;;;;;;5.43;4.10;;;;;;;;;;5089927;28;20024;-78
2022/08/19 13:04:16;;;;;;;6.97;4.10;;;;;;;;;;5083771;28;20039;-78
2022/08/19 13:06:42;;;;;;;4.78;3.15;;;;;;;;;;5091115;28;20455;-79
2022/08/19 13:09:08;;;;;;;5.70;3.60;;;;;;;;;;5079164;28;20060;-78
2022/08/19 13:11:35;;;;;;;5.82;3.80;;;;;;;;;;5075428;28;20016;-78
2022/08/19 13:14:02;;;;;;;5.50;3.58;;;;;;;;;;5073952;28;20037;-77
2022/08/19 13:16:28;;;;;;;3.85;3.30;;;;;;;;;;5078604;28;20028;-78
2022/08/19 13:18:55;;;;;;;6.72;3.65;;;;;;;;;;5086785;28;20540;-79
2022/08/19 13:21:23;;;;;;;4.25;3.33;;;;;;;;;;5077972;28;20028;-79
2022/08/19 13:23:49;;;;;;;7.57;3.20;;;;;;;;;;5079460;28;20033;-79
2022/08/19 13:26:16;;;;;;;4.50;3.10;;;;;;;;;;5081539;28;20032;-67
2022/08/19 13:34:13;;;;;;;5.72;4.25;;;;;;;;;;5081648;28;20597;-78
2022/08/19 13:36:39;;;;;;;9.23;4.30;;;;;;;;;;5101710;28;20540;-71
2022/08/19 13:39:07;;;;;;;6.30;3.50;;;;;;;;;;5101895;28;20372;-77
2022/08/19 13:41:34;;;;;;;5.10;3.75;;;;;;;;;;5102622;28;20108;-78
2022/08/19 13:44:01;;;;;;;6.43;3.92;;;;;;;;;;5095502;28;20024;-78
2022/08/19 13:46:28;;;;;;;6.50;3.42;;;;;;;;;;5093670;28;20106;-78
2022/08/19 13:48:56;;;;;;;5.55;3.67;;;;;;;;;;5093554;28;20044;-77
2022/08/19 13:51:22;;;;;;;8.18;4.30;;;;;;;;;;5096306;28;20020;-77
2022/08/19 13:53:48;;;;;;;6.90;3.65;;;;;;;;;;5093442;28;20035;-78
2022/08/19 13:56:16;;;;;;;6.47;3.53;;;;;;;;;;5093543;28;20494;-78
2022/08/19 13:58:43;;;;;;;7.05;3.75;;;;;;;;;;5092044;28;20078;-78
2022/08/19 14:01:09;;;;;;;8.57;4.13;;;;;;;;;;5083884;28;20023;-78
2022/08/19 14:03:36;;;;;;;9.65;3.70;;;;;;;;;;5086156;28;20093;-78
2022/08/19 14:06:02;;;;;;;7.10;3.72;;;;;;;;;;5088146;28;20024;-77
2022/08/19 14:08:31;;;;;;;6.32;3.47;;;;;;;;;;5083679;28;20112;-78
2022/08/19 14:10:58;;;;;;;5.82;3.67;;;;;;;;;;5076326;28;20016;-78
2022/08/19 14:13:24;;;;;;;6.97;3.80;;;;;;;;;;5099262;28;20111;-78
2022/08/19 14:15:50;;;;;;;10.68;3.80;;;;;;;;;;5088432;28;20538;-78
2022/08/19 14:18:18;;;;;;;4.50;3.10;;;;;;;;;;5094027;28;20024;-77
2022/08/19 14:20:44;;;;;;;3.88;3.08;;;;;;;;;;5098543;28;20017;-78
2022/08/19 14:23:12;;;;;;;8.45;3.58;;;;;;;;;;5093554;28;20028;-79
2022/08/19 14:25:38;;;;;;;7.38;3.83;;;;;;;;;;5092819;28;20012;-81
2022/08/19 14:28:04;;;;;;;8.23;3.75;;;;;;;;;;5100568;28;20099;-81
2022/08/19 14:30:31;;;;;;;7.13;3.92;;;;;;;;;;5113234;28;20030;-79
2022/08/19 14:32:59;;;;;;;7.28;3.83;;;;;;;;;;5113599;28;20027;-80
2022/08/19 14:35:26;;;;;;;6.72;3.38;;;;;;;;;;5085163;28;20032;-82
2022/08/19 14:37:55;;;;;;;10.43;4.00;;;;;;;;;;5076656;28;20490;-80
2022/08/19 14:40:25;;;;;;;9.30;3.70;;;;;;;;;;5101390;28;20042;-82
2022/08/19 14:42:52;;;;;;;4.47;3.17;;;;;;;;;;5106437;28;20514;-83
2022/08/19 14:45:18;;;;;;;6.38;3.60;;;;;;;;;;5101197;28;20020;-79
2022/08/19 14:47:44;;;;;;;7.22;3.72;;;;;;;;;;5097754;28;20061;-79
2022/08/19 14:50:11;;;;;;;5.43;3.15;;;;;;;;;;5102436;28;20027;-80
2022/08/19 14:52:39;;;;;;;7.72;4.07;;;;;;;;;;5101993;28;20020;-80
2022/08/19 14:55:05;;;;;;;6.13;3.22;;;;;;;;;;5091405;28;20368;-79
2022/08/19 14:57:31;;;;;;;8.57;3.97;;;;;;;;;;5089948;28;20024;-80
2022/08/19 14:59:57;;;;;;;4.18;3.13;;;;;;;;;;5089154;28;20387;-79
2022/08/19 15:02:23;;;;;;;8.82;3.55;;;;;;;;;;5098176;28;20394;-79
2022/08/19 15:04:50;;;;;;;5.63;3.60;;;;;;;;;;5109621;28;20121;-80